createdAt,value
2022-11-03T00:00:57.427Z,18.79
2022-11-03T00:03:27.616Z,18.23
2022-11-03T00:06:07.003Z,18.23
2022-11-03T00:08:36.060Z,18.07
2022-11-03T00:11:07.392Z,18.42
2022-11-03T00:13:35.019Z,18.44
2022-11-03T00:16:02.136Z,18.70
2022-11-03T00:18:29.223Z,18.40
2022-11-03T00:21:00.367Z,18.08
2022-11-03T00:23:31.062Z,17.83
2022-11-03T00:26:18.246Z,17.74
2022-11-03T00:28:45.714Z,18.05
2022-11-03T00:31:14.090Z,18.26
2022-11-03T00:33:41.327Z,18.40
2022-11-03T00:36:08.852Z,19.03
2022-11-03T00:38:37.646Z,19.34
2022-11-03T00:41:05.650Z,19.32
2022-11-03T00:43:33.444Z,19.22
2022-11-03T00:46:01.166Z,19.22
2022-11-03T00:48:31.008Z,19.40
2022-11-03T00:51:00.944Z,19.07
2022-11-03T00:53:28.653Z,19.00
2022-11-03T00:55:55.783Z,19.45
2022-11-03T00:58:22.910Z,19.25
2022-11-03T01:00:50.382Z,18.91
2022-11-03T01:03:17.559Z,18.65
2022-11-03T01:06:03.238Z,18.37
2022-11-03T01:08:34.143Z,18.63
2022-11-03T01:11:27.196Z,18.42
2022-11-03T01:13:54.582Z,18.37
2022-11-03T01:16:22.001Z,16.88
2022-11-03T01:18:49.280Z,17.57
2022-11-03T01:21:16.701Z,17.42
2022-11-03T01:23:43.922Z,16.97
2022-11-03T01:26:11.678Z,18.20
2022-11-03T01:28:39.481Z,18.54
2022-11-03T01:31:16.835Z,18.94
2022-11-03T01:33:45.731Z,18.92
2022-11-03T01:36:13.070Z,18.45
2022-11-03T01:38:40.196Z,18.74
2022-11-03T01:41:10.415Z,18.99
2022-11-03T01:43:38.867Z,19.17
2022-11-03T01:46:24.701Z,19.25
2022-11-03T01:48:56.475Z,19.24
2022-11-03T01:51:23.656Z,19.28
2022-11-03T01:53:51.351Z,19.34
2022-11-03T01:56:18.733Z,19.24
2022-11-03T01:58:46.902Z,19.19
2022-11-03T02:01:14.116Z,19.01
2022-11-03T02:03:42.826Z,18.99
2022-11-03T02:06:10.210Z,19.08
2022-11-03T02:08:37.359Z,19.02
2022-11-03T02:11:24.530Z,18.83
2022-11-03T02:13:52.239Z,18.65
2022-11-03T02:16:19.660Z,19.09
2022-11-03T02:18:46.785Z,18.95
2022-11-03T02:21:22.341Z,18.76
2022-11-03T02:24:09.721Z,18.94
2022-11-03T02:26:37.112Z,18.94
2022-11-03T02:29:04.240Z,18.70
2022-11-03T02:31:31.633Z,18.82
2022-11-03T02:34:01.659Z,18.92
2022-11-03T02:36:42.098Z,18.92
2022-11-03T02:39:15.178Z,18.56
2022-11-03T02:41:42.456Z,18.78
2022-11-03T02:44:12.203Z,18.41
2022-11-03T02:46:39.322Z,18.50
2022-11-03T02:49:06.495Z,18.50
2022-11-03T02:51:34.869Z,18.55
2022-11-03T02:54:10.221Z,18.13
2022-11-03T02:56:39.686Z,17.88
2022-11-03T02:59:08.588Z,17.99
2022-11-03T03:01:37.345Z,18.12
2022-11-03T03:04:06.475Z,18.16
2022-11-03T03:06:35.336Z,17.85
2022-11-03T03:09:03.897Z,17.89
2022-11-03T03:11:38.470Z,18.15
2022-11-03T03:14:10.377Z,18.31
2022-11-03T03:17:01.099Z,18.23
2022-11-03T03:19:46.724Z,18.39
2022-11-03T03:22:34.321Z,18.30
2022-11-03T03:25:03.815Z,18.36
2022-11-03T03:27:31.817Z,18.44
2022-11-03T03:30:00.624Z,18.42
2022-11-03T03:32:28.215Z,18.11
2022-11-03T03:34:55.625Z,18.00
2022-11-03T03:37:23.151Z,18.10
2022-11-03T03:39:51.746Z,18.37
2022-11-03T03:42:19.150Z,18.48
2022-11-03T03:44:46.296Z,18.46
2022-11-03T03:47:22.121Z,18.31
2022-11-03T03:49:49.844Z,18.35
2022-11-03T03:52:16.947Z,18.37
2022-11-03T03:54:44.065Z,18.26
2022-11-03T03:57:13.946Z,18.19
2022-11-03T03:59:41.043Z,18.21
2022-11-03T04:02:08.280Z,18.17
2022-11-03T04:04:35.765Z,17.81
2022-11-03T04:07:21.690Z,17.84
2022-11-03T04:09:49.208Z,17.55
2022-11-03T04:12:34.888Z,17.03
2022-11-03T04:15:20.733Z,16.81
2022-11-03T04:18:06.946Z,16.80
2022-11-03T04:20:53.151Z,17.19
2022-11-03T04:23:20.276Z,17.43
2022-11-03T04:25:48.322Z,17.41
2022-11-03T04:28:15.627Z,17.56
2022-11-03T04:30:42.776Z,17.64
2022-11-03T04:33:20.287Z,17.72
2022-11-03T04:35:47.785Z,17.63
2022-11-03T04:38:15.108Z,17.65
2022-11-03T04:40:49.172Z,17.75
2022-11-03T04:43:19.717Z,17.50
2022-11-03T04:45:47.439Z,17.38
2022-11-03T04:48:15.348Z,17.66
2022-11-03T04:50:46.588Z,17.41
2022-11-03T04:53:14.724Z,17.48
2022-11-03T04:55:41.996Z,17.72
2022-11-03T04:58:22.527Z,17.76
2022-11-03T05:00:53.510Z,17.82
2022-11-03T05:03:22.956Z,17.77
2022-11-03T05:05:50.083Z,17.78
2022-11-03T05:08:20.465Z,17.92
2022-11-03T05:10:48.134Z,18.03
2022-11-03T05:13:16.970Z,17.79
2022-11-03T05:15:45.260Z,17.85
2022-11-03T05:18:20.269Z,17.97
2022-11-03T05:20:50.827Z,17.99
2022-11-03T05:23:18.435Z,17.96
2022-11-03T05:25:45.969Z,18.06
2022-11-03T05:28:16.152Z,18.10
2022-11-03T05:30:43.508Z,17.70
2022-11-03T05:33:30.962Z,17.79
2022-11-03T05:35:59.736Z,17.92
2022-11-03T05:38:29.139Z,18.08
2022-11-03T05:40:56.265Z,18.01
2022-11-03T05:43:23.662Z,18.16
2022-11-03T05:45:51.491Z,18.09
2022-11-03T05:48:21.782Z,18.09
2022-11-03T05:50:49.178Z,18.01
2022-11-03T05:53:16.577Z,18.29
2022-11-03T05:55:43.702Z,18.29
2022-11-03T05:58:14.159Z,18.33
2022-11-03T06:00:47.118Z,17.61
2022-11-03T06:03:16.848Z,17.46
2022-11-03T06:05:43.956Z,16.87
2022-11-03T06:08:17.866Z,16.86
2022-11-03T06:10:45.920Z,16.28
2022-11-03T06:13:18.419Z,15.73
2022-11-03T06:15:46.383Z,15.36
2022-11-03T06:18:16.953Z,16.10
2022-11-03T06:20:44.928Z,15.93
2022-11-03T06:23:12.754Z,16.31
2022-11-03T06:25:41.998Z,16.91
2022-11-03T06:28:11.775Z,17.30
2022-11-03T06:30:39.876Z,17.73
2022-11-03T06:33:09.905Z,17.32
2022-11-03T06:35:37.074Z,17.11
2022-11-03T06:38:05.623Z,17.06
2022-11-03T06:40:33.382Z,16.70
2022-11-03T06:43:01.166Z,16.07
2022-11-03T06:45:29.555Z,16.69
2022-11-03T06:47:56.655Z,16.68
2022-11-03T06:50:30.920Z,16.98
2022-11-03T06:52:58.618Z,17.23
2022-11-03T06:55:26.642Z,17.09
2022-11-03T06:57:55.360Z,17.51
2022-11-03T07:00:36.171Z,17.31
2022-11-03T07:03:04.237Z,16.42
2022-11-03T07:05:32.265Z,17.34
2022-11-03T07:08:00.391Z,17.90
2022-11-03T07:10:28.697Z,17.67
2022-11-03T07:12:56.453Z,17.71
2022-11-03T07:15:25.739Z,17.64
2022-11-03T07:17:52.836Z,17.69
2022-11-03T07:20:20.232Z,18.07
2022-11-03T07:22:47.459Z,17.03
2022-11-03T07:25:16.484Z,16.73
2022-11-03T07:27:43.856Z,16.30
2022-11-03T07:30:21.226Z,16.59
2022-11-03T07:32:52.790Z,16.95
2022-11-03T07:35:41.626Z,17.09
2022-11-03T07:38:21.235Z,16.82
2022-11-03T07:40:49.248Z,16.44
2022-11-03T07:43:20.995Z,16.96
2022-11-03T07:45:48.831Z,16.74
2022-11-03T07:48:15.945Z,16.46
2022-11-03T07:50:43.295Z,16.04
2022-11-03T07:53:12.378Z,16.99
2022-11-03T07:55:39.648Z,16.21
2022-11-03T07:58:18.269Z,15.32
2022-11-03T08:00:45.738Z,15.81
2022-11-03T08:03:21.344Z,15.50
2022-11-03T08:05:48.438Z,15.77
2022-11-03T08:08:15.835Z,14.88
2022-11-03T08:10:43.010Z,15.30
2022-11-03T08:13:10.142Z,15.72
2022-11-03T08:15:37.511Z,15.51
2022-11-03T08:18:04.767Z,15.33
2022-11-03T08:20:31.867Z,15.87
2022-11-03T08:23:23.839Z,15.53
2022-11-03T08:25:46.574Z,14.92
2022-11-03T08:28:14.051Z,14.94
2022-11-03T08:30:41.162Z,14.48
2022-11-03T08:33:08.691Z,14.91
2022-11-03T08:35:36.395Z,14.89
2022-11-03T08:38:03.726Z,14.70
2022-11-03T08:40:30.976Z,14.98
2022-11-03T08:42:58.450Z,14.63
2022-11-03T08:45:25.553Z,14.96
2022-11-03T08:47:52.636Z,14.70
2022-11-03T08:50:20.064Z,15.31
2022-11-03T08:52:47.162Z,15.28
2022-11-03T08:55:16.974Z,15.75
2022-11-03T08:57:44.374Z,15.66
2022-11-03T09:00:11.800Z,15.27
2022-11-03T09:02:38.961Z,15.55
2022-11-03T09:05:09.828Z,15.28
2022-11-03T09:10:28.441Z,14.67
2022-11-03T09:13:01.644Z,14.83
2022-11-03T09:15:29.380Z,14.98
2022-11-03T09:17:56.632Z,15.13
2022-11-03T09:20:26.196Z,15.72
2022-11-03T09:22:56.025Z,16.08
2022-11-03T09:25:25.968Z,15.77
2022-11-03T09:27:53.481Z,15.75
2022-11-03T09:30:21.260Z,15.99
2022-11-03T09:32:48.583Z,15.55
2022-11-03T09:35:17.034Z,15.76
2022-11-03T09:37:44.405Z,15.22
2022-11-03T09:40:11.773Z,15.19
2022-11-03T09:42:39.320Z,15.46
2022-11-03T09:45:07.733Z,15.69
2022-11-03T09:47:41.779Z,15.45
2022-11-03T09:50:16.728Z,16.05
2022-11-03T09:52:48.771Z,15.52
2022-11-03T09:55:27.796Z,15.44
2022-11-03T09:57:55.592Z,15.41
2022-11-03T10:00:23.565Z,15.15
2022-11-03T10:02:50.954Z,15.17
2022-11-03T10:05:25.085Z,15.59
2022-11-03T10:10:20.434Z,15.60
2022-11-03T10:12:48.360Z,16.17
2022-11-03T10:15:16.595Z,15.52
2022-11-03T10:17:44.633Z,15.49
2022-11-03T10:20:12.663Z,15.61
2022-11-03T10:22:41.351Z,15.69
2022-11-03T10:25:26.477Z,15.46
2022-11-03T10:28:09.234Z,14.59
2022-11-03T10:31:11.202Z,14.65
2022-11-03T10:33:40.873Z,14.54
2022-11-03T10:36:17.097Z,15.07
2022-11-03T10:38:45.037Z,15.17
2022-11-03T10:41:15.257Z,14.68
2022-11-03T10:43:43.819Z,14.20
2022-11-03T10:46:36.933Z,14.59
2022-11-03T10:49:12.764Z,14.91
2022-11-03T10:51:40.453Z,14.97
2022-11-03T10:54:10.345Z,14.45
2022-11-03T10:56:37.456Z,14.88
2022-11-03T10:59:04.847Z,15.07
2022-11-03T11:01:32.096Z,15.95
2022-11-03T11:03:59.388Z,16.26
2022-11-03T11:06:29.763Z,16.17
2022-11-03T11:09:04.111Z,15.50
2022-11-03T11:11:31.492Z,14.90
2022-11-03T11:14:17.199Z,14.28
2022-11-03T11:16:47.610Z,15.27
2022-11-03T11:19:14.761Z,14.92
2022-11-03T11:21:41.810Z,14.81
2022-11-03T11:24:09.560Z,15.48
2022-11-03T11:26:37.207Z,15.48
2022-11-03T11:29:10.362Z,14.99
2022-11-03T11:31:38.223Z,14.82
2022-11-03T11:34:17.279Z,14.00
2022-11-03T11:37:04.628Z,14.21
2022-11-03T11:39:32.141Z,15.19
2022-11-03T11:42:12.279Z,15.02
2022-11-03T11:44:39.555Z,15.08
2022-11-03T11:47:25.793Z,15.52
2022-11-03T11:50:02.049Z,15.21
2022-11-03T11:52:29.839Z,15.30
2022-11-03T11:54:56.959Z,15.03
2022-11-03T11:57:24.114Z,15.19
2022-11-03T11:59:51.490Z,15.29
2022-11-03T12:02:19.503Z,14.44
2022-11-03T12:04:47.193Z,14.74
2022-11-03T12:07:14.318Z,15.04
2022-11-03T12:10:00.196Z,15.05
2022-11-03T12:12:33.769Z,15.26
2022-11-03T12:15:00.861Z,14.97
2022-11-03T12:17:28.163Z,15.09
2022-11-03T12:19:55.347Z,15.40
2022-11-03T12:22:29.250Z,15.56
2022-11-03T12:25:00.768Z,15.73
2022-11-03T12:27:29.220Z,15.96
2022-11-03T12:29:57.734Z,14.95
2022-11-03T12:32:33.542Z,14.68
2022-11-03T12:35:06.232Z,15.19
2022-11-03T12:37:33.384Z,15.33
2022-11-03T12:40:00.670Z,15.17
2022-11-03T12:42:28.057Z,15.78
2022-11-03T12:44:55.913Z,15.76
2022-11-03T12:47:23.156Z,15.25
2022-11-03T12:49:50.568Z,15.32
2022-11-03T12:52:17.688Z,15.15
2022-11-03T12:54:45.090Z,15.02
2022-11-03T12:57:12.469Z,15.40
2022-11-03T12:59:39.596Z,15.61
2022-11-03T13:02:06.956Z,15.23
2022-11-03T13:04:34.412Z,15.14
2022-11-03T13:07:01.549Z,15.08
2022-11-03T13:09:28.642Z,16.25
2022-11-03T13:12:14.475Z,16.24
2022-11-03T13:14:45.920Z,15.94
2022-11-03T13:17:15.536Z,15.15
2022-11-03T13:19:42.669Z,15.25
2022-11-03T13:22:09.773Z,14.98
2022-11-03T13:24:37.162Z,14.23
2022-11-03T13:27:04.319Z,14.74
2022-11-03T13:29:35.349Z,15.15
2022-11-03T13:32:03.687Z,15.50
2022-11-03T13:34:30.912Z,15.38
2022-11-03T13:36:58.769Z,15.62
2022-11-03T13:39:26.172Z,15.65
2022-11-03T13:41:53.278Z,16.17
2022-11-03T13:44:20.562Z,15.82
2022-11-03T13:46:47.955Z,15.67
2022-11-03T13:52:03.331Z,15.76
2022-11-03T14:00:05.656Z,15.28
2022-11-03T14:05:27.635Z,15.96
2022-11-03T14:07:54.762Z,15.63
2022-11-03T14:10:21.920Z,15.01
2022-11-03T14:12:49.290Z,14.50
2022-11-03T14:15:16.495Z,14.88
2022-11-03T14:17:43.612Z,14.34
2022-11-03T14:20:11.434Z,14.30
2022-11-03T14:22:39.111Z,13.85
2022-11-03T14:25:06.529Z,14.08
2022-11-03T14:27:33.973Z,14.36
2022-11-03T14:30:01.079Z,15.64
2022-11-03T14:32:28.200Z,15.70
2022-11-03T14:34:55.676Z,16.17
2022-11-03T14:37:25.314Z,16.07
2022-11-03T14:39:52.556Z,14.99
2022-11-03T14:42:20.002Z,14.75
2022-11-03T14:44:47.591Z,14.96
2022-11-03T14:47:18.749Z,15.57
2022-11-03T14:49:47.498Z,15.32
2022-11-03T14:52:14.830Z,15.28
2022-11-03T14:54:42.036Z,15.40
2022-11-03T14:57:09.839Z,15.30
2022-11-03T14:59:36.957Z,15.00
2022-11-03T15:02:04.543Z,14.41
2022-11-03T15:04:32.249Z,13.61
2022-11-03T15:06:59.422Z,14.28
2022-11-03T15:09:26.537Z,14.93
2022-11-03T15:11:53.928Z,14.51
2022-11-03T15:14:21.069Z,13.86
2022-11-03T15:16:48.264Z,14.27
2022-11-03T15:19:15.642Z,14.84
2022-11-03T15:21:42.869Z,14.95
2022-11-03T15:26:57.326Z,13.63
2022-11-03T15:29:24.471Z,14.00
2022-11-03T15:31:51.825Z,13.61
2022-11-03T15:34:19.205Z,13.45
2022-11-03T15:36:46.329Z,13.61
2022-11-03T15:39:13.611Z,14.48
2022-11-03T15:41:41.072Z,14.15
2022-11-03T15:44:08.219Z,13.24
2022-11-03T15:46:35.887Z,13.45
2022-11-03T15:49:03.738Z,13.00
2022-11-03T15:51:30.926Z,13.55
2022-11-03T15:53:59.143Z,13.21
2022-11-03T15:56:27.223Z,12.85
2022-11-03T15:58:54.507Z,12.52
2022-11-03T16:01:21.761Z,12.27
2022-11-03T16:03:49.315Z,12.08
2022-11-03T16:06:16.558Z,11.93
2022-11-03T16:08:43.709Z,12.39
2022-11-03T16:11:11.087Z,12.24
2022-11-03T16:13:38.294Z,11.79
2022-11-03T16:16:05.603Z,12.26
2022-11-03T16:18:33.229Z,12.39
2022-11-03T16:21:00.475Z,12.11
2022-11-03T16:23:27.616Z,12.09
2022-11-03T16:25:55.065Z,11.73
2022-11-03T16:28:23.230Z,11.95
2022-11-03T16:30:54.305Z,12.76
2022-11-03T16:33:22.445Z,12.47
2022-11-03T16:35:49.561Z,11.99
2022-11-03T16:38:16.982Z,12.43
2022-11-03T16:40:44.460Z,12.82
2022-11-03T16:43:11.853Z,13.04
2022-11-03T16:45:38.961Z,13.26
2022-11-03T16:48:07.397Z,13.67
2022-11-03T16:50:35.059Z,13.32
2022-11-03T16:53:02.945Z,12.78
2022-11-03T16:55:30.367Z,13.87
2022-11-03T16:57:57.766Z,13.14
2022-11-03T17:00:25.119Z,13.31
2022-11-03T17:02:52.511Z,13.11
2022-11-03T17:05:21.946Z,13.89
2022-11-03T17:07:53.712Z,14.59
2022-11-03T17:10:22.222Z,13.93
2022-11-03T17:12:50.069Z,14.97
2022-11-03T17:15:17.437Z,14.54
2022-11-03T17:17:44.894Z,14.54
2022-11-03T17:20:12.144Z,14.53
2022-11-03T17:22:39.468Z,13.87
2022-11-03T17:25:09.516Z,14.14
2022-11-03T17:27:44.805Z,14.07
2022-11-03T17:30:13.345Z,14.14
2022-11-03T17:32:44.303Z,14.83
2022-11-03T17:35:18.036Z,14.54
2022-11-03T17:37:45.873Z,14.92
2022-11-03T17:40:17.085Z,15.19
2022-11-03T17:42:44.626Z,14.35
2022-11-03T17:45:12.722Z,14.53
2022-11-03T17:47:40.202Z,14.99
2022-11-03T17:50:08.081Z,15.61
2022-11-03T17:52:36.156Z,15.37
2022-11-03T17:55:05.127Z,15.63
2022-11-03T17:57:32.995Z,15.45
2022-11-03T18:00:02.059Z,16.04
2022-11-03T18:02:38.094Z,15.47
2022-11-03T18:05:14.180Z,15.27
2022-11-03T18:07:44.415Z,15.65
2022-11-03T18:10:12.025Z,15.31
2022-11-03T18:12:59.598Z,14.54
2022-11-03T18:15:27.453Z,14.83
2022-11-03T18:17:54.981Z,14.09
2022-11-03T18:20:23.967Z,14.32
2022-11-03T18:22:52.023Z,13.34
2022-11-03T18:25:20.676Z,13.68
2022-11-03T18:27:48.431Z,13.28
2022-11-03T18:30:16.905Z,13.86
2022-11-03T18:32:45.669Z,13.87
2022-11-03T18:35:15.878Z,13.94
2022-11-03T18:37:47.674Z,14.31
2022-11-03T18:40:16.179Z,14.62
2022-11-03T18:42:44.115Z,15.24
2022-11-03T18:45:12.758Z,14.67
2022-11-03T18:47:40.579Z,14.31
2022-11-03T18:50:14.618Z,14.41
2022-11-03T18:52:43.005Z,14.79
2022-11-03T18:55:12.397Z,14.51
2022-11-03T18:57:40.275Z,14.83
2022-11-03T19:00:19.593Z,14.63
2022-11-03T19:02:47.948Z,13.99
2022-11-03T19:05:16.004Z,14.64
2022-11-03T19:07:44.112Z,15.27
2022-11-03T19:10:15.176Z,14.68
2022-11-03T19:12:48.826Z,14.80
2022-11-03T19:15:19.203Z,15.11
2022-11-03T19:17:47.918Z,15.18
2022-11-03T19:20:16.285Z,14.41
2022-11-03T19:22:43.969Z,14.59
2022-11-03T19:25:11.537Z,14.32
2022-11-03T19:27:39.693Z,13.92
2022-11-03T19:30:07.866Z,14.34
2022-11-03T19:32:36.408Z,14.65
2022-11-03T19:35:06.636Z,15.47
2022-11-03T19:37:35.995Z,14.22
2022-11-03T19:40:22.994Z,14.80
2022-11-03T19:42:51.945Z,15.32
2022-11-03T19:45:20.365Z,15.24
2022-11-03T19:48:18.187Z,15.13
2022-11-03T19:50:40.645Z,15.09
2022-11-03T19:53:08.734Z,15.44
2022-11-03T19:55:36.515Z,15.43
2022-11-03T19:58:16.447Z,14.89
2022-11-03T20:00:44.859Z,15.15
2022-11-03T20:03:13.462Z,15.43
2022-11-03T20:05:43.964Z,14.30
2022-11-03T20:08:19.936Z,14.50
2022-11-03T20:10:49.020Z,14.88
2022-11-03T20:13:18.330Z,15.44
2022-11-03T20:15:46.625Z,14.99
2022-11-03T20:18:14.558Z,15.27
2022-11-03T20:20:43.436Z,14.17
2022-11-03T20:23:24.344Z,14.29
2022-11-03T20:25:52.338Z,14.34
2022-11-03T20:28:23.411Z,15.07
2022-11-03T20:30:51.078Z,14.90
2022-11-03T20:33:19.706Z,14.39
2022-11-03T20:35:47.085Z,14.22
2022-11-03T20:38:17.481Z,14.47
2022-11-03T20:40:45.479Z,14.36
2022-11-03T20:43:22.281Z,15.08
2022-11-03T20:45:50.331Z,15.71
2022-11-03T20:48:17.718Z,15.78
2022-11-03T20:50:53.688Z,14.88
2022-11-03T20:53:22.259Z,13.74
2022-11-03T20:55:50.086Z,14.08
2022-11-03T20:58:18.409Z,14.15
2022-11-03T21:00:46.232Z,15.27
2022-11-03T21:03:37.682Z,14.74
2022-11-03T21:06:05.648Z,14.70
2022-11-03T21:08:32.872Z,15.15
2022-11-03T21:11:20.312Z,14.81
2022-11-03T21:13:47.980Z,15.09
2022-11-03T21:16:33.699Z,14.44
2022-11-03T21:19:20.248Z,15.05
2022-11-03T21:21:47.568Z,15.27
2022-11-03T21:24:15.172Z,15.91
2022-11-03T21:26:42.704Z,15.57
2022-11-03T21:29:10.493Z,15.28
2022-11-03T21:31:37.954Z,15.12
2022-11-03T21:34:05.148Z,15.26
2022-11-03T21:36:32.336Z,14.52
2022-11-03T21:38:59.698Z,14.71
2022-11-03T21:41:45.754Z,14.44
2022-11-03T21:44:16.053Z,15.33
2022-11-03T21:46:43.527Z,15.48
2022-11-03T21:49:29.458Z,16.49
2022-11-03T21:52:19.294Z,15.73
2022-11-03T21:54:46.445Z,16.08
2022-11-03T21:57:16.997Z,15.09
2022-11-03T21:59:44.123Z,15.51
2022-11-03T22:02:11.351Z,16.78
2022-11-03T22:04:38.816Z,16.57
2022-11-03T22:07:06.181Z,14.91
2022-11-03T22:09:33.408Z,15.19
2022-11-03T22:12:00.984Z,14.33
2022-11-03T22:14:48.073Z,15.69
2022-11-03T22:17:15.496Z,16.36
2022-11-03T22:20:01.400Z,15.32
2022-11-03T22:22:47.949Z,15.81
2022-11-03T22:25:33.844Z,14.86
2022-11-03T22:28:01.249Z,15.54
2022-11-03T22:30:47.266Z,15.80
2022-11-03T22:33:14.732Z,15.77
2022-11-03T22:36:00.282Z,15.90
2022-11-03T22:38:46.248Z,15.91
2022-11-03T22:41:32.045Z,14.66
2022-11-03T22:44:17.935Z,15.19
2022-11-03T22:46:45.068Z,15.68
2022-11-03T22:49:12.463Z,16.30
2022-11-03T22:51:39.574Z,14.81
2022-11-03T22:54:12.717Z,14.66
2022-11-03T22:56:40.146Z,14.82
2022-11-03T22:59:07.546Z,15.37
2022-11-03T23:01:35.100Z,15.69
2022-11-03T23:04:04.834Z,16.12
2022-11-03T23:06:34.308Z,15.48
2022-11-03T23:09:01.552Z,15.58
2022-11-03T23:11:32.441Z,15.93
2022-11-03T23:14:00.644Z,15.42
2022-11-03T23:16:28.858Z,15.48
2022-11-03T23:19:15.195Z,15.93
2022-11-03T23:21:44.134Z,15.08
2022-11-03T23:24:30.268Z,14.18
2022-11-03T23:26:59.505Z,15.45
2022-11-03T23:29:27.366Z,14.94
2022-11-03T23:31:54.847Z,15.51
2022-11-03T23:34:22.077Z,15.25
2022-11-03T23:36:49.596Z,15.26
2022-11-03T23:39:17.444Z,15.05
2022-11-03T23:41:44.589Z,15.50
2022-11-03T23:44:12.213Z,15.65
2022-11-03T23:46:58.087Z,15.17
2022-11-03T23:49:25.481Z,15.62
2022-11-03T23:51:52.683Z,15.08
2022-11-03T23:54:19.804Z,15.30
2022-11-03T23:57:06.059Z,15.32
2022-11-03T23:59:34.038Z,15.33
